sensor_id;sensor_type;location;lat;lon;timestamp;P1;durP1;ratioP1;P2;durP2;ratioP2
13171;SDS011;6651;53.200;10.432;2023-02-18T00:01:58;13.82;;;4.05;;
13171;SDS011;6651;53.200;10.432;2023-02-18T00:04:24;11.73;;;3.85;;
13171;SDS011;6651;53.200;10.432;2023-02-18T00:06:50;14.35;;;3.40;;
13171;SDS011;6651;53.200;10.432;2023-02-18T00:09:16;15.32;;;3.60;;
13171;SDS011;6651;53.200;10.432;2023-02-18T00:11:42;13.50;;;3.53;;
13171;SDS011;6651;53.200;10.432;2023-02-18T00:14:10;16.27;;;4.05;;
13171;SDS011;6651;53.200;10.432;2023-02-18T00:16:36;12.70;;;3.35;;
13171;SDS011;6651;53.200;10.432;2023-02-18T00:19:04;13.48;;;3.35;;
13171;SDS011;6651;53.200;10.432;2023-02-18T00:21:31;15.57;;;4.15;;
13171;SDS011;6651;53.200;10.432;2023-02-18T00:23:57;13.80;;;3.65;;
13171;SDS011;6651;53.200;10.432;2023-02-18T00:26:24;13.20;;;3.60;;
13171;SDS011;6651;53.200;10.432;2023-02-18T00:28:50;14.60;;;3.72;;
13171;SDS011;6651;53.200;10.432;2023-02-18T00:31:18;12.40;;;3.40;;
13171;SDS011;6651;53.200;10.432;2023-02-18T00:33:44;11.00;;;3.20;;
13171;SDS011;6651;53.200;10.432;2023-02-18T00:36:12;16.17;;;3.55;;
13171;SDS011;6651;53.200;10.432;2023-02-18T00:38:38;12.15;;;3.05;;
13171;SDS011;6651;53.200;10.432;2023-02-18T00:41:04;11.98;;;3.65;;
13171;SDS011;6651;53.200;10.432;2023-02-18T00:43:30;12.10;;;3.58;;
13171;SDS011;6651;53.200;10.432;2023-02-18T00:45:56;13.32;;;3.40;;
13171;SDS011;6651;53.200;10.432;2023-02-18T00:48:22;13.65;;;3.70;;
13171;SDS011;6651;53.200;10.432;2023-02-18T00:50:48;16.25;;;3.35;;
13171;SDS011;6651;53.200;10.432;2023-02-18T00:53:14;10.07;;;2.97;;
13171;SDS011;6651;53.200;10.432;2023-02-18T00:55:44;12.65;;;3.35;;
13171;SDS011;6651;53.200;10.432;2023-02-18T00:58:13;12.55;;;3.42;;
13171;SDS011;6651;53.200;10.432;2023-02-18T01:00:39;13.07;;;3.33;;
13171;SDS011;6651;53.200;10.432;2023-02-18T01:03:06;12.15;;;3.42;;
13171;SDS011;6651;53.200;10.432;2023-02-18T01:05:32;15.23;;;3.30;;
13171;SDS011;6651;53.200;10.432;2023-02-18T01:07:58;15.88;;;3.85;;
13171;SDS011;6651;53.200;10.432;2023-02-18T01:10:24;15.73;;;3.88;;
13171;SDS011;6651;53.200;10.432;2023-02-18T01:12:50;12.02;;;3.60;;
13171;SDS011;6651;53.200;10.432;2023-02-18T01:15:16;18.67;;;4.28;;
13171;SDS011;6651;53.200;10.432;2023-02-18T01:17:43;11.50;;;3.45;;
13171;SDS011;6651;53.200;10.432;2023-02-18T01:20:09;12.27;;;3.47;;
13171;SDS011;6651;53.200;10.432;2023-02-18T01:22:36;14.40;;;3.42;;
13171;SDS011;6651;53.200;10.432;2023-02-18T01:25:02;14.45;;;3.78;;
13171;SDS011;6651;53.200;10.432;2023-02-18T01:27:28;16.42;;;3.70;;
13171;SDS011;6651;53.200;10.432;2023-02-18T01:29:54;14.23;;;3.58;;
13171;SDS011;6651;53.200;10.432;2023-02-18T01:32:20;14.45;;;3.95;;
13171;SDS011;6651;53.200;10.432;2023-02-18T01:34:46;15.70;;;3.53;;
13171;SDS011;6651;53.200;10.432;2023-02-18T01:37:13;14.15;;;3.58;;
13171;SDS011;6651;53.200;10.432;2023-02-18T01:39:39;15.23;;;3.83;;
13171;SDS011;6651;53.200;10.432;2023-02-18T01:42:05;14.52;;;3.65;;
13171;SDS011;6651;53.200;10.432;2023-02-18T01:44:32;17.95;;;4.25;;
13171;SDS011;6651;53.200;10.432;2023-02-18T01:46:58;12.30;;;3.15;;
13171;SDS011;6651;53.200;10.432;2023-02-18T01:49:26;14.82;;;3.97;;
13171;SDS011;6651;53.200;10.432;2023-02-18T01:51:54;14.68;;;3.83;;
13171;SDS011;6651;53.200;10.432;2023-02-18T01:54:31;15.57;;;3.88;;
13171;SDS011;6651;53.200;10.432;2023-02-18T01:56:59;14.73;;;3.53;;
13171;SDS011;6651;53.200;10.432;2023-02-18T01:59:28;12.27;;;3.42;;
13171;SDS011;6651;53.200;10.432;2023-02-18T02:01:55;12.68;;;3.65;;
13171;SDS011;6651;53.200;10.432;2023-02-18T02:04:22;13.75;;;3.83;;
13171;SDS011;6651;53.200;10.432;2023-02-18T02:06:48;14.35;;;4.07;;
13171;SDS011;6651;53.200;10.432;2023-02-18T02:09:15;16.42;;;3.85;;
13171;SDS011;6651;53.200;10.432;2023-02-18T02:17:03;13.13;;;3.40;;
13171;SDS011;6651;53.200;10.432;2023-02-18T02:27:20;14.90;;;3.35;;
13171;SDS011;6651;53.200;10.432;2023-02-18T02:40:27;13.10;;;3.17;;
13171;SDS011;6651;53.200;10.432;2023-02-18T02:46:03;13.25;;;3.45;;
13171;SDS011;6651;53.200;10.432;2023-02-18T02:48:44;14.93;;;3.65;;
13171;SDS011;6651;53.200;10.432;2023-02-18T02:56:41;16.40;;;3.67;;
13171;SDS011;6651;53.200;10.432;2023-02-18T02:59:09;13.35;;;3.55;;
13171;SDS011;6651;53.200;10.432;2023-02-18T03:06:46;12.57;;;3.40;;
13171;SDS011;6651;53.200;10.432;2023-02-18T03:11:52;12.05;;;3.25;;
13171;SDS011;6651;53.200;10.432;2023-02-18T03:14:31;12.30;;;2.72;;
13171;SDS011;6651;53.200;10.432;2023-02-18T03:17:01;12.88;;;3.03;;
13171;SDS011;6651;53.200;10.432;2023-02-18T03:19:34;11.27;;;3.05;;
13171;SDS011;6651;53.200;10.432;2023-02-18T03:22:06;10.98;;;2.72;;
13171;SDS011;6651;53.200;10.432;2023-02-18T03:24:35;10.70;;;3.10;;
13171;SDS011;6651;53.200;10.432;2023-02-18T03:27:09;14.25;;;3.08;;
13171;SDS011;6651;53.200;10.432;2023-02-18T03:29:37;12.80;;;2.90;;
13171;SDS011;6651;53.200;10.432;2023-02-18T03:32:04;11.73;;;3.17;;
13171;SDS011;6651;53.200;10.432;2023-02-18T03:34:32;12.25;;;3.10;;
13171;SDS011;6651;53.200;10.432;2023-02-18T03:36:58;9.05;;;2.38;;
13171;SDS011;6651;53.200;10.432;2023-02-18T03:39:26;15.38;;;3.55;;
13171;SDS011;6651;53.200;10.432;2023-02-18T03:41:53;9.40;;;2.90;;
13171;SDS011;6651;53.200;10.432;2023-02-18T03:44:19;10.57;;;3.03;;
13171;SDS011;6651;53.200;10.432;2023-02-18T03:46:45;10.07;;;2.88;;
13171;SDS011;6651;53.200;10.432;2023-02-18T03:49:12;10.75;;;2.90;;
13171;SDS011;6651;53.200;10.432;2023-02-18T03:51:38;10.27;;;3.05;;
13171;SDS011;6651;53.200;10.432;2023-02-18T03:54:04;10.68;;;3.28;;
13171;SDS011;6651;53.200;10.432;2023-02-18T03:56:30;9.35;;;2.83;;
13171;SDS011;6651;53.200;10.432;2023-02-18T03:58:56;8.88;;;2.80;;
13171;SDS011;6651;53.200;10.432;2023-02-18T04:01:22;12.63;;;3.00;;
13171;SDS011;6651;53.200;10.432;2023-02-18T04:03:48;12.25;;;3.03;;
13171;SDS011;6651;53.200;10.432;2023-02-18T04:06:14;15.05;;;3.58;;
13171;SDS011;6651;53.200;10.432;2023-02-18T04:08:40;10.07;;;2.65;;
13171;SDS011;6651;53.200;10.432;2023-02-18T04:11:06;12.27;;;2.90;;
13171;SDS011;6651;53.200;10.432;2023-02-18T04:13:32;12.23;;;3.13;;
13171;SDS011;6651;53.200;10.432;2023-02-18T04:15:58;7.32;;;2.50;;
13171;SDS011;6651;53.200;10.432;2023-02-18T04:18:24;13.18;;;3.00;;
13171;SDS011;6651;53.200;10.432;2023-02-18T04:20:50;9.05;;;2.20;;
13171;SDS011;6651;53.200;10.432;2023-02-18T04:23:16;10.10;;;2.80;;
13171;SDS011;6651;53.200;10.432;2023-02-18T04:25:42;11.77;;;3.15;;
13171;SDS011;6651;53.200;10.432;2023-02-18T04:28:09;11.05;;;2.53;;
13171;SDS011;6651;53.200;10.432;2023-02-18T04:30:37;10.15;;;2.47;;
13171;SDS011;6651;53.200;10.432;2023-02-18T04:33:03;10.05;;;2.90;;
13171;SDS011;6651;53.200;10.432;2023-02-18T04:35:29;9.85;;;2.90;;
13171;SDS011;6651;53.200;10.432;2023-02-18T04:37:55;9.55;;;2.47;;
13171;SDS011;6651;53.200;10.432;2023-02-18T04:40:21;11.15;;;3.15;;
13171;SDS011;6651;53.200;10.432;2023-02-18T04:42:49;10.45;;;3.35;;
13171;SDS011;6651;53.200;10.432;2023-02-18T04:45:15;10.38;;;2.90;;
13171;SDS011;6651;53.200;10.432;2023-02-18T04:47:41;8.98;;;2.92;;
13171;SDS011;6651;53.200;10.432;2023-02-18T04:50:08;13.85;;;3.60;;
13171;SDS011;6651;53.200;10.432;2023-02-18T04:52:34;12.10;;;3.25;;
13171;SDS011;6651;53.200;10.432;2023-02-18T04:55:00;13.00;;;3.70;;
13171;SDS011;6651;53.200;10.432;2023-02-18T04:57:26;12.68;;;3.90;;
13171;SDS011;6651;53.200;10.432;2023-02-18T04:59:52;10.23;;;3.10;;
13171;SDS011;6651;53.200;10.432;2023-02-18T05:02:18;11.45;;;3.40;;
13171;SDS011;6651;53.200;10.432;2023-02-18T05:04:44;11.77;;;3.38;;
13171;SDS011;6651;53.200;10.432;2023-02-18T05:07:10;9.07;;;3.30;;
13171;SDS011;6651;53.200;10.432;2023-02-18T05:09:36;7.53;;;2.75;;
13171;SDS011;6651;53.200;10.432;2023-02-18T05:12:02;9.85;;;2.47;;
13171;SDS011;6651;53.200;10.432;2023-02-18T05:14:28;7.47;;;2.17;;
13171;SDS011;6651;53.200;10.432;2023-02-18T05:16:54;4.70;;;1.73;;
13171;SDS011;6651;53.200;10.432;2023-02-18T05:19:20;8.25;;;2.30;;
13171;SDS011;6651;53.200;10.432;2023-02-18T05:21:46;6.15;;;2.10;;
13171;SDS011;6651;53.200;10.432;2023-02-18T05:24:12;8.00;;;2.67;;
13171;SDS011;6651;53.200;10.432;2023-02-18T05:26:38;7.43;;;2.10;;
13171;SDS011;6651;53.200;10.432;2023-02-18T05:29:04;8.73;;;2.58;;
13171;SDS011;6651;53.200;10.432;2023-02-18T05:31:30;6.30;;;2.00;;
13171;SDS011;6651;53.200;10.432;2023-02-18T05:33:57;9.23;;;2.50;;
13171;SDS011;6651;53.200;10.432;2023-02-18T05:36:23;7.70;;;2.40;;
13171;SDS011;6651;53.200;10.432;2023-02-18T05:38:49;7.03;;;2.33;;
13171;SDS011;6651;53.200;10.432;2023-02-18T05:41:15;8.30;;;2.20;;
13171;SDS011;6651;53.200;10.432;2023-02-18T05:43:41;5.70;;;2.22;;
13171;SDS011;6651;53.200;10.432;2023-02-18T05:46:26;12.60;;;2.83;;
13171;SDS011;6651;53.200;10.432;2023-02-18T05:48:52;7.60;;;2.45;;
13171;SDS011;6651;53.200;10.432;2023-02-18T05:51:18;8.02;;;2.83;;
13171;SDS011;6651;53.200;10.432;2023-02-18T05:53:44;7.55;;;2.50;;
13171;SDS011;6651;53.200;10.432;2023-02-18T05:56:10;7.55;;;2.10;;
13171;SDS011;6651;53.200;10.432;2023-02-18T05:58:36;5.85;;;2.40;;
13171;SDS011;6651;53.200;10.432;2023-02-18T06:01:02;10.10;;;2.65;;
13171;SDS011;6651;53.200;10.432;2023-02-18T06:03:28;8.27;;;2.45;;
13171;SDS011;6651;53.200;10.432;2023-02-18T06:05:54;8.25;;;1.95;;
13171;SDS011;6651;53.200;10.432;2023-02-18T06:08:20;7.68;;;2.50;;
13171;SDS011;6651;53.200;10.432;2023-02-18T06:10:46;8.95;;;2.50;;
13171;SDS011;6651;53.200;10.432;2023-02-18T06:13:12;9.32;;;2.55;;
13171;SDS011;6651;53.200;10.432;2023-02-18T06:15:38;10.15;;;2.65;;
13171;SDS011;6651;53.200;10.432;2023-02-18T06:18:04;8.32;;;2.70;;
13171;SDS011;6651;53.200;10.432;2023-02-18T06:20:30;8.43;;;2.50;;
13171;SDS011;6651;53.200;10.432;2023-02-18T06:22:56;6.63;;;2.47;;
13171;SDS011;6651;53.200;10.432;2023-02-18T06:25:22;8.50;;;2.47;;
13171;SDS011;6651;53.200;10.432;2023-02-18T06:27:48;10.98;;;2.58;;
13171;SDS011;6651;53.200;10.432;2023-02-18T06:30:14;9.70;;;2.40;;
13171;SDS011;6651;53.200;10.432;2023-02-18T06:32:40;12.68;;;2.80;;
13171;SDS011;6651;53.200;10.432;2023-02-18T06:35:06;10.40;;;2.60;;
13171;SDS011;6651;53.200;10.432;2023-02-18T06:37:32;10.30;;;2.90;;
13171;SDS011;6651;53.200;10.432;2023-02-18T06:39:58;7.28;;;2.25;;
13171;SDS011;6651;53.200;10.432;2023-02-18T06:42:24;7.82;;;2.13;;
13171;SDS011;6651;53.200;10.432;2023-02-18T06:44:50;9.70;;;2.33;;
13171;SDS011;6651;53.200;10.432;2023-02-18T06:47:16;12.10;;;2.35;;
13171;SDS011;6651;53.200;10.432;2023-02-18T06:49:42;6.88;;;2.40;;
13171;SDS011;6651;53.200;10.432;2023-02-18T06:52:08;7.03;;;1.80;;
13171;SDS011;6651;53.200;10.432;2023-02-18T06:54:34;6.97;;;2.38;;
13171;SDS011;6651;53.200;10.432;2023-02-18T06:57:00;8.35;;;2.40;;
13171;SDS011;6651;53.200;10.432;2023-02-18T06:59:26;7.72;;;2.30;;
13171;SDS011;6651;53.200;10.432;2023-02-18T07:01:52;8.45;;;2.53;;
13171;SDS011;6651;53.200;10.432;2023-02-18T07:04:18;8.23;;;2.40;;
13171;SDS011;6651;53.200;10.432;2023-02-18T07:06:44;7.40;;;2.30;;
13171;SDS011;6651;53.200;10.432;2023-02-18T07:09:10;5.38;;;2.00;;
13171;SDS011;6651;53.200;10.432;2023-02-18T07:11:36;3.88;;;1.70;;
13171;SDS011;6651;53.200;10.432;2023-02-18T07:14:02;7.38;;;2.40;;
13171;SDS011;6651;53.200;10.432;2023-02-18T07:16:28;8.25;;;2.10;;
13171;SDS011;6651;53.200;10.432;2023-02-18T07:18:54;9.45;;;2.80;;
13171;SDS011;6651;53.200;10.432;2023-02-18T07:21:20;6.85;;;2.47;;
13171;SDS011;6651;53.200;10.432;2023-02-18T07:23:46;8.15;;;2.35;;
13171;SDS011;6651;53.200;10.432;2023-02-18T07:26:13;6.45;;;2.53;;
13171;SDS011;6651;53.200;10.432;2023-02-18T07:28:39;7.85;;;2.38;;
13171;SDS011;6651;53.200;10.432;2023-02-18T07:31:06;8.50;;;2.58;;
13171;SDS011;6651;53.200;10.432;2023-02-18T07:33:32;7.75;;;2.35;;
13171;SDS011;6651;53.200;10.432;2023-02-18T07:35:58;9.30;;;2.50;;
13171;SDS011;6651;53.200;10.432;2023-02-18T07:38:25;11.13;;;2.70;;
13171;SDS011;6651;53.200;10.432;2023-02-18T07:40:52;6.18;;;2.22;;
13171;SDS011;6651;53.200;10.432;2023-02-18T07:43:18;7.72;;;2.30;;
13171;SDS011;6651;53.200;10.432;2023-02-18T07:45:44;10.10;;;2.17;;
13171;SDS011;6651;53.200;10.432;2023-02-18T07:48:10;7.18;;;2.25;;
13171;SDS011;6651;53.200;10.432;2023-02-18T07:50:39;11.00;;;2.60;;
13171;SDS011;6651;53.200;10.432;2023-02-18T07:53:06;6.32;;;2.03;;
13171;SDS011;6651;53.200;10.432;2023-02-18T07:55:32;7.05;;;2.42;;
13171;SDS011;6651;53.200;10.432;2023-02-18T07:58:23;10.55;;;2.45;;
13171;SDS011;6651;53.200;10.432;2023-02-18T08:00:50;7.80;;;2.38;;
13171;SDS011;6651;53.200;10.432;2023-02-18T08:03:18;9.35;;;2.72;;
13171;SDS011;6651;53.200;10.432;2023-02-18T08:05:44;8.65;;;2.60;;
13171;SDS011;6651;53.200;10.432;2023-02-18T08:08:14;9.35;;;2.40;;
13171;SDS011;6651;53.200;10.432;2023-02-18T08:10:40;7.53;;;2.03;;
13171;SDS011;6651;53.200;10.432;2023-02-18T08:13:07;7.82;;;2.40;;
13171;SDS011;6651;53.200;10.432;2023-02-18T08:15:33;7.05;;;2.28;;
13171;SDS011;6651;53.200;10.432;2023-02-18T08:17:59;10.93;;;2.42;;
13171;SDS011;6651;53.200;10.432;2023-02-18T08:20:25;10.10;;;2.67;;
13171;SDS011;6651;53.200;10.432;2023-02-18T08:22:51;7.05;;;2.20;;
13171;SDS011;6651;53.200;10.432;2023-02-18T08:25:17;8.77;;;2.67;;
13171;SDS011;6651;53.200;10.432;2023-02-18T08:27:43;6.25;;;2.50;;
13171;SDS011;6651;53.200;10.432;2023-02-18T08:30:09;5.57;;;2.20;;
13171;SDS011;6651;53.200;10.432;2023-02-18T08:32:35;8.07;;;2.50;;
13171;SDS011;6651;53.200;10.432;2023-02-18T08:35:02;9.20;;;2.40;;
13171;SDS011;6651;53.200;10.432;2023-02-18T08:37:28;9.18;;;2.40;;
13171;SDS011;6651;53.200;10.432;2023-02-18T08:39:54;8.32;;;2.42;;
13171;SDS011;6651;53.200;10.432;2023-02-18T08:42:20;8.88;;;2.40;;
13171;SDS011;6651;53.200;10.432;2023-02-18T08:44:46;9.52;;;2.72;;
13171;SDS011;6651;53.200;10.432;2023-02-18T08:47:12;9.70;;;2.60;;
13171;SDS011;6651;53.200;10.432;2023-02-18T08:49:38;7.72;;;2.65;;
13171;SDS011;6651;53.200;10.432;2023-02-18T08:52:04;8.98;;;2.53;;
13171;SDS011;6651;53.200;10.432;2023-02-18T08:54:30;7.57;;;2.42;;
13171;SDS011;6651;53.200;10.432;2023-02-18T08:56:56;7.13;;;2.80;;
13171;SDS011;6651;53.200;10.432;2023-02-18T08:59:23;6.47;;;2.40;;
13171;SDS011;6651;53.200;10.432;2023-02-18T09:01:49;6.00;;;2.92;;
13171;SDS011;6651;53.200;10.432;2023-02-18T09:04:15;7.93;;;2.45;;
13171;SDS011;6651;53.200;10.432;2023-02-18T09:06:41;10.93;;;2.88;;
13171;SDS011;6651;53.200;10.432;2023-02-18T09:09:07;6.80;;;2.58;;
13171;SDS011;6651;53.200;10.432;2023-02-18T09:11:34;8.85;;;3.00;;
13171;SDS011;6651;53.200;10.432;2023-02-18T09:14:00;10.02;;;2.90;;
13171;SDS011;6651;53.200;10.432;2023-02-18T09:16:27;7.13;;;2.83;;
13171;SDS011;6651;53.200;10.432;2023-02-18T09:18:54;8.88;;;3.15;;
13171;SDS011;6651;53.200;10.432;2023-02-18T09:21:20;7.47;;;3.08;;
13171;SDS011;6651;53.200;10.432;2023-02-18T09:23:47;7.82;;;3.15;;
13171;SDS011;6651;53.200;10.432;2023-02-18T09:26:14;9.15;;;2.80;;
13171;SDS011;6651;53.200;10.432;2023-02-18T09:28:40;8.48;;;2.97;;
13171;SDS011;6651;53.200;10.432;2023-02-18T09:31:07;8.95;;;3.58;;
13171;SDS011;6651;53.200;10.432;2023-02-18T09:33:35;9.48;;;3.63;;
13171;SDS011;6651;53.200;10.432;2023-02-18T09:36:01;6.25;;;3.00;;
13171;SDS011;6651;53.200;10.432;2023-02-18T09:38:27;5.65;;;3.22;;
13171;SDS011;6651;53.200;10.432;2023-02-18T09:40:53;6.43;;;3.40;;
13171;SDS011;6651;53.200;10.432;2023-02-18T09:45:49;6.57;;;3.33;;
13171;SDS011;6651;53.200;10.432;2023-02-18T09:48:16;6.43;;;4.00;;
13171;SDS011;6651;53.200;10.432;2023-02-18T09:50:42;9.55;;;5.90;;
13171;SDS011;6651;53.200;10.432;2023-02-18T09:53:12;6.30;;;3.35;;
13171;SDS011;6651;53.200;10.432;2023-02-18T09:55:38;5.75;;;3.67;;
13171;SDS011;6651;53.200;10.432;2023-02-18T09:58:15;5.05;;;3.13;;
13171;SDS011;6651;53.200;10.432;2023-02-18T10:00:44;3.42;;;2.90;;
13171;SDS011;6651;53.200;10.432;2023-02-18T10:03:14;4.07;;;3.00;;
13171;SDS011;6651;53.200;10.432;2023-02-18T10:08:41;5.63;;;3.20;;
13171;SDS011;6651;53.200;10.432;2023-02-18T10:11:15;4.38;;;2.72;;
13171;SDS011;6651;53.200;10.432;2023-02-18T10:13:42;3.40;;;2.90;;
13171;SDS011;6651;53.200;10.432;2023-02-18T10:16:09;3.28;;;2.85;;
13171;SDS011;6651;53.200;10.432;2023-02-18T10:18:40;4.85;;;2.90;;
13171;SDS011;6651;53.200;10.432;2023-02-18T10:21:13;3.28;;;2.72;;
13171;SDS011;6651;53.200;10.432;2023-02-18T10:23:43;4.05;;;2.70;;
13171;SDS011;6651;53.200;10.432;2023-02-18T10:26:13;2.97;;;2.67;;
13171;SDS011;6651;53.200;10.432;2023-02-18T10:28:41;3.55;;;2.75;;
13171;SDS011;6651;53.200;10.432;2023-02-18T10:31:08;2.90;;;2.60;;
13171;SDS011;6651;53.200;10.432;2023-02-18T10:36:15;2.90;;;2.58;;
13171;SDS011;6651;53.200;10.432;2023-02-18T10:43:40;3.05;;;2.63;;
13171;SDS011;6651;53.200;10.432;2023-02-18T10:46:18;3.65;;;2.80;;
13171;SDS011;6651;53.200;10.432;2023-02-18T10:48:49;2.95;;;2.65;;
13171;SDS011;6651;53.200;10.432;2023-02-18T10:51:19;3.80;;;2.83;;
13171;SDS011;6651;53.200;10.432;2023-02-18T10:53:47;3.65;;;2.75;;
13171;SDS011;6651;53.200;10.432;2023-02-18T10:59:00;3.00;;;2.50;;
13171;SDS011;6651;53.200;10.432;2023-02-18T11:01:26;3.22;;;2.60;;
13171;SDS011;6651;53.200;10.432;2023-02-18T11:04:04;4.07;;;3.05;;
13171;SDS011;6651;53.200;10.432;2023-02-18T11:06:31;4.47;;;3.30;;
13171;SDS011;6651;53.200;10.432;2023-02-18T11:08:58;3.53;;;2.70;;
13171;SDS011;6651;53.200;10.432;2023-02-18T11:11:29;2.60;;;2.08;;
13171;SDS011;6651;53.200;10.432;2023-02-18T11:13:58;2.40;;;2.20;;
13171;SDS011;6651;53.200;10.432;2023-02-18T11:16:37;2.88;;;2.30;;
13171;SDS011;6651;53.200;10.432;2023-02-18T11:19:03;2.50;;;2.20;;
13171;SDS011;6651;53.200;10.432;2023-02-18T11:21:34;2.05;;;1.92;;
13171;SDS011;6651;53.200;10.432;2023-02-18T11:24:14;2.20;;;2.00;;
13171;SDS011;6651;53.200;10.432;2023-02-18T11:26:40;2.33;;;1.75;;
13171;SDS011;6651;53.200;10.432;2023-02-18T11:31:41;2.42;;;2.00;;
13171;SDS011;6651;53.200;10.432;2023-02-18T11:34:15;1.98;;;1.88;;
13171;SDS011;6651;53.200;10.432;2023-02-18T11:36:42;3.40;;;2.47;;
13171;SDS011;6651;53.200;10.432;2023-02-18T11:39:19;1.85;;;1.75;;
13171;SDS011;6651;53.200;10.432;2023-02-18T11:41:46;1.90;;;1.80;;
13171;SDS011;6651;53.200;10.432;2023-02-18T11:44:35;1.73;;;1.63;;
13171;SDS011;6651;53.200;10.432;2023-02-18T11:47:03;1.95;;;1.85;;
13171;SDS011;6651;53.200;10.432;2023-02-18T11:49:30;1.60;;;1.50;;
13171;SDS011;6651;53.200;10.432;2023-02-18T11:54:30;2.70;;;1.63;;
13171;SDS011;6651;53.200;10.432;2023-02-18T11:56:57;1.50;;;1.40;;
13171;SDS011;6651;53.200;10.432;2023-02-18T11:59:24;4.30;;;2.45;;
13171;SDS011;6651;53.200;10.432;2023-02-18T12:01:56;3.33;;;2.10;;
13171;SDS011;6651;53.200;10.432;2023-02-18T12:04:29;3.28;;;2.30;;
13171;SDS011;6651;53.200;10.432;2023-02-18T12:09:25;3.13;;;2.55;;
13171;SDS011;6651;53.200;10.432;2023-02-18T12:11:59;2.70;;;2.50;;
13171;SDS011;6651;53.200;10.432;2023-02-18T12:14:26;2.40;;;2.20;;
13171;SDS011;6651;53.200;10.432;2023-02-18T12:29:40;3.10;;;2.40;;
13171;SDS011;6651;53.200;10.432;2023-02-18T12:32:12;3.50;;;2.50;;
13171;SDS011;6651;53.200;10.432;2023-02-18T12:37:43;2.53;;;2.10;;
13171;SDS011;6651;53.200;10.432;2023-02-18T13:11:10;2.50;;;2.30;;
13171;SDS011;6651;53.200;10.432;2023-02-18T13:13:40;2.42;;;2.22;;
13171;SDS011;6651;53.200;10.432;2023-02-18T13:16:09;2.33;;;2.10;;
13171;SDS011;6651;53.200;10.432;2023-02-18T13:18:41;2.30;;;2.10;;
13171;SDS011;6651;53.200;10.432;2023-02-18T13:21:13;3.38;;;2.28;;
13171;SDS011;6651;53.200;10.432;2023-02-18T13:26:34;2.47;;;2.28;;
13171;SDS011;6651;53.200;10.432;2023-02-18T13:31:57;2.10;;;1.88;;
13171;SDS011;6651;53.200;10.432;2023-02-18T13:34:31;2.10;;;1.88;;
13171;SDS011;6651;53.200;10.432;2023-02-18T13:39:55;1.73;;;1.45;;
13171;SDS011;6651;53.200;10.432;2023-02-18T13:47:34;4.30;;;1.83;;
13171;SDS011;6651;53.200;10.432;2023-02-18T13:50:12;5.82;;;1.65;;
13171;SDS011;6651;53.200;10.432;2023-02-18T13:52:38;4.20;;;2.20;;
13171;SDS011;6651;53.200;10.432;2023-02-18T13:55:04;6.30;;;2.03;;
13171;SDS011;6651;53.200;10.432;2023-02-18T13:57:30;3.53;;;2.15;;
13171;SDS011;6651;53.200;10.432;2023-02-18T13:59:57;4.55;;;2.10;;
13171;SDS011;6651;53.200;10.432;2023-02-18T14:09:46;7.97;;;2.75;;
13171;SDS011;6651;53.200;10.432;2023-02-18T14:14:41;9.98;;;2.80;;
13171;SDS011;6651;53.200;10.432;2023-02-18T14:19:52;4.63;;;2.28;;
13171;SDS011;6651;53.200;10.432;2023-02-18T14:22:23;6.13;;;2.35;;
13171;SDS011;6651;53.200;10.432;2023-02-18T14:24:52;7.20;;;2.95;;
13171;SDS011;6651;53.200;10.432;2023-02-18T14:27:20;6.55;;;2.17;;
13171;SDS011;6651;53.200;10.432;2023-02-18T14:29:50;5.70;;;2.30;;
13171;SDS011;6651;53.200;10.432;2023-02-18T14:32:17;8.55;;;2.72;;
13171;SDS011;6651;53.200;10.432;2023-02-18T14:37:32;6.70;;;2.85;;
13171;SDS011;6651;53.200;10.432;2023-02-18T14:42:38;7.50;;;2.67;;
13171;SDS011;6651;53.200;10.432;2023-02-18T14:47:53;9.45;;;2.63;;
13171;SDS011;6651;53.200;10.432;2023-02-18T14:50:20;6.43;;;2.70;;
13171;SDS011;6651;53.200;10.432;2023-02-18T14:52:55;10.55;;;3.00;;
13171;SDS011;6651;53.200;10.432;2023-02-18T14:57:50;8.95;;;2.55;;
13171;SDS011;6651;53.200;10.432;2023-02-18T15:00:17;8.48;;;2.65;;
13171;SDS011;6651;53.200;10.432;2023-02-18T15:02:46;8.85;;;2.53;;
13171;SDS011;6651;53.200;10.432;2023-02-18T15:05:20;5.45;;;2.33;;
13171;SDS011;6651;53.200;10.432;2023-02-18T15:13:04;5.93;;;2.53;;
13171;SDS011;6651;53.200;10.432;2023-02-18T15:15:32;8.38;;;2.53;;
13171;SDS011;6651;53.200;10.432;2023-02-18T15:18:00;7.22;;;2.60;;
13171;SDS011;6651;53.200;10.432;2023-02-18T15:20:27;9.90;;;2.80;;
13171;SDS011;6651;53.200;10.432;2023-02-18T15:22:54;9.40;;;3.13;;
13171;SDS011;6651;53.200;10.432;2023-02-18T15:25:20;8.95;;;2.58;;
13171;SDS011;6651;53.200;10.432;2023-02-18T15:27:50;8.32;;;2.97;;
13171;SDS011;6651;53.200;10.432;2023-02-18T15:30:23;8.70;;;2.85;;
13171;SDS011;6651;53.200;10.432;2023-02-18T15:32:53;7.82;;;2.90;;
13171;SDS011;6651;53.200;10.432;2023-02-18T15:35:19;7.65;;;2.83;;
13171;SDS011;6651;53.200;10.432;2023-02-18T15:37:50;7.75;;;2.83;;
13171;SDS011;6651;53.200;10.432;2023-02-18T15:40:16;9.05;;;2.92;;
13171;SDS011;6651;53.200;10.432;2023-02-18T15:42:44;11.73;;;2.83;;
13171;SDS011;6651;53.200;10.432;2023-02-18T15:45:16;9.73;;;3.35;;
13171;SDS011;6651;53.200;10.432;2023-02-18T15:47:43;7.75;;;2.60;;
13171;SDS011;6651;53.200;10.432;2023-02-18T15:50:14;7.95;;;2.88;;
13171;SDS011;6651;53.200;10.432;2023-02-18T15:52:42;6.38;;;2.40;;
13171;SDS011;6651;53.200;10.432;2023-02-18T15:55:12;8.98;;;2.63;;
13171;SDS011;6651;53.200;10.432;2023-02-18T15:57:40;8.75;;;3.45;;
13171;SDS011;6651;53.200;10.432;2023-02-18T16:03:12;10.45;;;3.63;;
13171;SDS011;6651;53.200;10.432;2023-02-18T16:05:39;8.40;;;3.38;;
13171;SDS011;6651;53.200;10.432;2023-02-18T16:08:16;7.93;;;3.15;;
13171;SDS011;6651;53.200;10.432;2023-02-18T16:10:43;11.93;;;3.47;;
13171;SDS011;6651;53.200;10.432;2023-02-18T16:13:11;11.85;;;3.33;;
13171;SDS011;6651;53.200;10.432;2023-02-18T16:15:39;8.20;;;2.97;;
13171;SDS011;6651;53.200;10.432;2023-02-18T16:18:06;10.88;;;3.20;;
13171;SDS011;6651;53.200;10.432;2023-02-18T16:23:01;11.57;;;3.40;;
13171;SDS011;6651;53.200;10.432;2023-02-18T16:25:41;9.45;;;3.08;;
13171;SDS011;6651;53.200;10.432;2023-02-18T16:28:15;10.50;;;3.22;;
13171;SDS011;6651;53.200;10.432;2023-02-18T16:30:43;13.00;;;3.30;;
13171;SDS011;6651;53.200;10.432;2023-02-18T16:33:10;8.70;;;2.90;;
13171;SDS011;6651;53.200;10.432;2023-02-18T16:35:37;11.35;;;3.55;;
13171;SDS011;6651;53.200;10.432;2023-02-18T16:38:03;12.20;;;3.47;;
13171;SDS011;6651;53.200;10.432;2023-02-18T16:43:08;11.70;;;3.28;;
13171;SDS011;6651;53.200;10.432;2023-02-18T16:45:39;6.10;;;2.70;;
13171;SDS011;6651;53.200;10.432;2023-02-18T16:48:06;9.93;;;3.00;;
13171;SDS011;6651;53.200;10.432;2023-02-18T16:50:36;11.18;;;3.47;;
13171;SDS011;6651;53.200;10.432;2023-02-18T16:53:02;9.25;;;3.00;;
13171;SDS011;6651;53.200;10.432;2023-02-18T16:55:28;11.32;;;3.35;;
13171;SDS011;6651;53.200;10.432;2023-02-18T16:57:55;9.57;;;3.42;;
13171;SDS011;6651;53.200;10.432;2023-02-18T17:00:22;9.50;;;3.35;;
13171;SDS011;6651;53.200;10.432;2023-02-18T17:02:49;12.20;;;3.33;;
13171;SDS011;6651;53.200;10.432;2023-02-18T17:05:19;9.95;;;3.10;;
13171;SDS011;6651;53.200;10.432;2023-02-18T17:07:46;10.57;;;3.10;;
13171;SDS011;6651;53.200;10.432;2023-02-18T17:10:13;8.25;;;3.10;;
13171;SDS011;6651;53.200;10.432;2023-02-18T17:12:39;8.95;;;2.83;;
13171;SDS011;6651;53.200;10.432;2023-02-18T17:15:12;7.63;;;3.08;;
13171;SDS011;6651;53.200;10.432;2023-02-18T17:17:38;6.90;;;2.72;;
13171;SDS011;6651;53.200;10.432;2023-02-18T17:20:04;6.80;;;2.95;;
13171;SDS011;6651;53.200;10.432;2023-02-18T17:22:30;12.20;;;3.67;;
13171;SDS011;6651;53.200;10.432;2023-02-18T17:24:56;8.00;;;5.30;;
13171;SDS011;6651;53.200;10.432;2023-02-18T17:27:22;7.32;;;6.63;;